createdAt,value
2019-02-14T00:00:43.535Z,33.87
2019-02-14T00:03:09.293Z,36.97
2019-02-14T00:05:35.047Z,34.53
2019-02-14T00:08:00.802Z,34.80
2019-02-14T00:10:26.565Z,34.97
2019-02-14T00:12:52.331Z,37.83
2019-02-14T00:15:18.095Z,37.80
2019-02-14T00:17:43.841Z,36.13
2019-02-14T00:20:09.592Z,36.03
2019-02-14T00:22:35.354Z,36.77
2019-02-14T00:25:01.129Z,34.00
2019-02-14T00:27:26.892Z,37.23
2019-02-14T00:29:52.641Z,34.30
2019-02-14T00:32:18.425Z,33.73
2019-02-14T00:34:44.196Z,37.20
2019-02-14T00:37:09.970Z,34.83
2019-02-14T00:39:35.716Z,36.27
2019-02-14T00:42:01.477Z,41.40
2019-02-14T00:44:27.227Z,40.47
2019-02-14T00:46:52.992Z,38.13
2019-02-14T00:49:18.736Z,40.37
2019-02-14T00:51:44.495Z,36.97
2019-02-14T00:54:10.248Z,38.00
2019-02-14T00:56:36.010Z,40.40
2019-02-14T00:59:01.757Z,35.90
2019-02-14T01:01:27.521Z,37.30
2019-02-14T01:03:53.264Z,38.17
2019-02-14T01:06:19.386Z,42.77
2019-02-14T01:08:45.449Z,40.50
2019-02-14T01:11:11.220Z,45.27
2019-02-14T01:13:36.974Z,40.03
2019-02-14T01:16:02.731Z,44.07
2019-02-14T01:18:28.481Z,38.73
2019-02-14T01:20:54.233Z,41.23
2019-02-14T01:23:20.000Z,42.83
2019-02-14T01:25:45.747Z,41.17
2019-02-14T01:28:11.512Z,40.63
2019-02-14T01:30:37.256Z,41.40
2019-02-14T01:33:03.040Z,42.37
2019-02-14T01:35:28.804Z,39.70
2019-02-14T01:37:54.571Z,40.50
2019-02-14T01:40:20.331Z,46.70
2019-02-14T01:42:46.090Z,43.67
2019-02-14T01:45:11.941Z,43.40
2019-02-14T01:47:37.699Z,44.93
2019-02-14T01:50:45.126Z,45.83
2019-02-14T01:53:10.887Z,47.63
2019-02-14T01:55:36.647Z,45.10
2019-02-14T01:58:02.422Z,45.50
2019-02-14T02:00:28.173Z,43.83
2019-02-14T02:02:53.944Z,44.83
2019-02-14T02:05:19.700Z,46.90
2019-02-14T02:07:45.467Z,46.43
2019-02-14T02:10:11.219Z,43.63
2019-02-14T02:12:36.997Z,45.00
2019-02-14T02:18:29.818Z,48.13
2019-02-14T02:21:37.246Z,48.17
2019-02-14T02:24:03.014Z,48.40
2019-02-14T02:26:28.770Z,44.90
2019-02-14T02:28:54.537Z,44.07
2019-02-14T02:31:20.296Z,47.00
2019-02-14T02:33:46.074Z,49.10
2019-02-14T02:36:11.846Z,45.63
2019-02-14T02:38:37.611Z,48.80
2019-02-14T02:41:03.370Z,44.93
2019-02-14T02:44:10.805Z,44.17
2019-02-14T02:46:36.579Z,46.47
2019-02-14T02:49:02.345Z,52.27
2019-02-14T02:51:47.997Z,46.27
2019-02-14T02:54:13.770Z,45.53
2019-02-14T02:56:39.524Z,44.37
2019-02-14T02:59:05.289Z,49.03
2019-02-14T03:01:31.046Z,50.67
2019-02-14T03:03:56.820Z,50.87
2019-02-14T03:06:22.572Z,55.87
2019-02-14T03:08:48.337Z,49.10
2019-02-14T03:11:14.098Z,50.70
2019-02-14T03:16:13.341Z,50.23
2019-02-14T03:18:39.190Z,51.13
2019-02-14T03:21:04.899Z,50.03
2019-02-14T03:23:30.657Z,50.93
2019-02-14T03:25:56.421Z,49.87
2019-02-14T03:28:22.183Z,50.27
2019-02-14T03:30:47.957Z,55.20
2019-02-14T03:33:13.741Z,48.60
2019-02-14T03:35:39.502Z,53.80
2019-02-14T03:38:05.252Z,55.40
2019-02-14T03:40:31.023Z,58.07
2019-02-14T03:42:56.780Z,57.60
2019-02-14T03:45:22.558Z,52.73
2019-02-14T03:47:48.320Z,48.97
2019-02-14T03:50:14.082Z,54.50
2019-02-14T03:52:39.829Z,53.63
2019-02-14T03:58:18.861Z,56.93
2019-02-14T04:00:44.633Z,53.53
2019-02-14T04:03:10.398Z,54.27
2019-02-14T04:05:36.169Z,54.50
2019-02-14T04:08:01.923Z,51.70
2019-02-14T04:10:27.687Z,55.50
2019-02-14T04:12:53.443Z,54.10
2019-02-14T04:15:19.220Z,49.70
2019-02-14T04:17:44.962Z,46.87
2019-02-14T04:20:52.404Z,47.80
2019-02-14T04:23:18.153Z,57.33
2019-02-14T04:25:43.918Z,51.00
2019-02-14T04:28:09.678Z,53.60
2019-02-14T04:33:28.918Z,54.27
2019-02-14T04:35:54.676Z,55.03
2019-02-14T04:38:20.439Z,53.80
2019-02-14T04:40:46.207Z,54.13
2019-02-14T04:43:11.964Z,47.90
2019-02-14T04:45:37.734Z,55.20
2019-02-14T04:48:03.493Z,54.87
2019-02-14T04:50:29.259Z,49.43
2019-02-14T04:52:55.029Z,52.93
2019-02-14T04:55:20.800Z,53.60
2019-02-14T04:57:46.570Z,53.73
2019-02-14T05:00:54.031Z,53.57
2019-02-14T05:03:19.787Z,53.83
2019-02-14T05:05:45.575Z,51.27
2019-02-14T05:08:11.327Z,56.97
2019-02-14T05:10:37.083Z,56.47
2019-02-14T05:13:02.847Z,57.80
2019-02-14T05:15:28.605Z,54.17
2019-02-14T05:17:54.396Z,58.37
2019-02-14T05:20:20.152Z,58.00
2019-02-14T05:22:45.918Z,55.73
2019-02-14T05:25:11.679Z,57.53
2019-02-14T05:27:37.444Z,54.43
2019-02-14T05:30:44.889Z,58.30
2019-02-14T05:33:10.673Z,57.43
2019-02-14T05:35:36.421Z,56.97
2019-02-14T05:38:02.186Z,54.20
2019-02-14T05:40:27.941Z,56.70
2019-02-14T05:42:53.699Z,54.47
2019-02-14T05:45:19.456Z,54.37
2019-02-14T05:47:45.324Z,54.00
2019-02-14T05:53:38.166Z,58.33
2019-02-14T05:56:03.936Z,57.93
2019-02-14T05:58:29.819Z,58.63
2019-02-14T06:00:55.587Z,62.20
2019-02-14T06:03:21.385Z,59.73
2019-02-14T06:05:47.141Z,59.17
2019-02-14T06:08:12.910Z,60.37
2019-02-14T06:10:38.702Z,62.03
2019-02-14T06:13:04.451Z,65.23
2019-02-14T06:15:30.244Z,61.23
2019-02-14T06:17:56.018Z,63.27
2019-02-14T06:20:21.768Z,61.00
2019-02-14T06:22:47.532Z,65.43
2019-02-14T06:25:13.299Z,64.30
2019-02-14T06:27:39.073Z,67.27
2019-02-14T06:30:24.709Z,67.57
2019-02-14T06:32:50.492Z,67.90
2019-02-14T06:35:16.256Z,64.77
2019-02-14T06:37:42.054Z,69.83
2019-02-14T06:43:34.881Z,68.63
2019-02-14T06:46:00.629Z,65.87
2019-02-14T06:48:26.396Z,69.60
2019-02-14T06:50:52.172Z,66.37
2019-02-14T06:53:17.935Z,69.63
2019-02-14T06:55:43.690Z,68.87
2019-02-14T06:58:09.473Z,69.13
2019-02-14T07:00:35.227Z,74.77
2019-02-14T07:03:01.013Z,72.40
2019-02-14T07:05:26.781Z,71.43
2019-02-14T07:07:52.539Z,71.57
2019-02-14T07:10:18.304Z,69.07
2019-02-14T07:12:44.058Z,72.40
2019-02-14T07:15:51.517Z,67.77
2019-02-14T07:18:17.287Z,67.73
2019-02-14T07:20:43.045Z,69.27
2019-02-14T07:23:08.792Z,76.37
2019-02-14T07:25:34.558Z,77.53
2019-02-14T07:28:00.314Z,71.23
2019-02-14T07:31:07.746Z,64.30
2019-02-14T07:33:33.529Z,72.20
2019-02-14T07:36:19.213Z,72.37
2019-02-14T07:38:45.097Z,73.70
2019-02-14T07:41:30.738Z,65.73
2019-02-14T07:43:56.528Z,75.77
2019-02-14T07:46:23.019Z,74.57
2019-02-14T07:48:49.946Z,66.40
2019-02-14T07:51:15.702Z,72.13
2019-02-14T07:53:41.541Z,74.57
2019-02-14T07:56:07.356Z,67.83
2019-02-14T07:58:33.106Z,66.53
2019-02-14T08:00:59.084Z,71.50
2019-02-14T08:03:44.769Z,71.10
2019-02-14T08:06:10.546Z,69.03
2019-02-14T08:08:36.295Z,73.87
2019-02-14T08:11:02.061Z,75.03
2019-02-14T08:13:27.818Z,74.17
2019-02-14T08:15:53.590Z,69.63
2019-02-14T08:18:19.338Z,69.03
2019-02-14T08:20:45.112Z,73.17
2019-02-14T08:23:10.869Z,72.57
2019-02-14T08:25:36.649Z,75.03
2019-02-14T08:28:02.406Z,71.43
2019-02-14T08:30:28.189Z,72.17
2019-02-14T08:32:53.962Z,70.60
2019-02-14T08:35:19.736Z,76.70
2019-02-14T08:37:46.230Z,71.47
2019-02-14T08:40:55.391Z,72.87
2019-02-14T08:43:21.194Z,72.07
2019-02-14T08:45:46.983Z,69.37
2019-02-14T08:48:12.731Z,71.70
2019-02-14T08:50:38.520Z,64.27
2019-02-14T08:53:04.273Z,66.33
2019-02-14T08:55:30.101Z,63.93
2019-02-14T08:57:55.850Z,62.00
2019-02-14T09:00:21.629Z,65.93
2019-02-14T09:02:47.387Z,65.87
2019-02-14T09:05:13.157Z,61.30
2019-02-14T09:07:38.913Z,58.10
2019-02-14T09:10:46.356Z,64.67
2019-02-14T09:13:17.308Z,66.07
2019-02-14T09:15:39.781Z,59.57
2019-02-14T09:18:05.545Z,63.90
2019-02-14T09:20:31.304Z,57.70
2019-02-14T09:22:57.054Z,66.00
2019-02-14T09:25:22.835Z,65.33
2019-02-14T09:27:48.608Z,64.83
2019-02-14T09:30:14.382Z,62.03
2019-02-14T09:32:40.335Z,54.10
2019-02-14T09:35:47.791Z,50.40
2019-02-14T09:38:13.540Z,47.23
2019-02-14T09:40:39.311Z,47.80
2019-02-14T09:43:05.084Z,46.03
2019-02-14T09:45:30.842Z,46.07
2019-02-14T09:47:56.611Z,48.07
2019-02-14T09:50:22.361Z,46.43
2019-02-14T09:52:48.110Z,45.67
2019-02-14T09:55:13.878Z,46.27
2019-02-14T09:57:39.640Z,49.23
2019-02-14T10:00:47.093Z,47.43
2019-02-14T10:03:12.841Z,46.50
2019-02-14T10:05:38.611Z,45.73
2019-02-14T10:08:12.546Z,45.07
2019-02-14T10:10:32.037Z,43.47
2019-02-14T10:12:57.801Z,45.17
2019-02-14T10:15:23.554Z,42.57
2019-02-14T10:17:49.321Z,44.37
2019-02-14T10:20:56.773Z,45.60
2019-02-14T10:23:22.545Z,43.30
2019-02-14T10:25:48.334Z,43.67
2019-02-14T10:28:14.119Z,42.70
2019-02-14T10:30:40.289Z,43.00
2019-02-14T10:33:07.574Z,44.53
2019-02-14T10:35:33.347Z,44.87
2019-02-14T10:37:59.142Z,43.20
2019-02-14T10:40:24.907Z,43.07
2019-02-14T10:42:50.668Z,43.43
2019-02-14T10:45:58.110Z,41.07
2019-02-14T10:48:23.860Z,41.80
2019-02-14T10:50:49.616Z,40.40
2019-02-14T10:53:15.382Z,41.40
2019-02-14T10:55:41.156Z,40.50
2019-02-14T10:58:06.945Z,39.73
2019-02-14T11:03:26.260Z,38.30
2019-02-14T11:05:52.027Z,42.43
2019-02-14T11:08:17.794Z,41.93
2019-02-14T11:10:43.547Z,39.93
2019-02-14T11:13:09.313Z,39.63
2019-02-14T11:15:35.067Z,40.30
2019-02-14T11:18:00.839Z,40.53
2019-02-14T11:20:26.597Z,37.97
2019-02-14T11:22:52.389Z,39.07
2019-02-14T11:25:59.850Z,38.07
2019-02-14T11:28:25.637Z,37.60
2019-02-14T11:30:51.401Z,35.60
2019-02-14T11:33:17.209Z,38.10
2019-02-14T11:35:42.963Z,39.27
2019-02-14T11:38:08.746Z,36.40
2019-02-14T11:40:34.512Z,37.50
2019-02-14T11:43:00.270Z,36.20
2019-02-14T11:45:26.142Z,35.73
2019-02-14T11:47:51.935Z,35.13
2019-02-14T11:50:17.687Z,35.60
2019-02-14T11:52:43.466Z,35.30
2019-02-14T11:55:50.889Z,33.17
2019-02-14T11:58:36.548Z,33.13
2019-02-14T12:01:22.201Z,36.37
2019-02-14T12:03:47.994Z,35.23
2019-02-14T12:06:17.522Z,36.63
2019-02-14T12:09:01.307Z,34.83
2019-02-14T12:11:27.088Z,34.00
2019-02-14T12:13:52.857Z,33.60
2019-02-14T12:16:18.610Z,32.97
2019-02-14T12:18:44.377Z,33.17
2019-02-14T12:21:10.132Z,32.60
2019-02-14T12:23:35.913Z,34.00
2019-02-14T12:26:01.670Z,31.23
2019-02-14T12:28:27.430Z,30.17
2019-02-14T12:30:53.187Z,29.83
2019-02-14T12:33:18.946Z,29.97
2019-02-14T12:35:44.733Z,28.57
2019-02-14T12:38:10.501Z,30.30
2019-02-14T12:40:36.297Z,28.37
2019-02-14T12:43:02.057Z,28.17
2019-02-14T12:45:27.830Z,29.63
2019-02-14T12:47:53.578Z,27.57
2019-02-14T12:50:19.360Z,28.13
2019-02-14T12:52:45.119Z,28.10
2019-02-14T12:55:10.894Z,27.43
2019-02-14T12:57:36.648Z,27.57
2019-02-14T13:00:44.114Z,25.67
2019-02-14T13:03:29.778Z,26.80
2019-02-14T13:06:15.442Z,26.90
2019-02-14T13:08:41.206Z,27.47
2019-02-14T13:11:06.984Z,27.40
2019-02-14T13:13:32.755Z,26.83
2019-02-14T13:15:58.519Z,26.83
2019-02-14T13:18:24.288Z,27.90
2019-02-14T13:20:50.047Z,29.13
2019-02-14T13:23:15.818Z,31.00
2019-02-14T13:25:41.589Z,29.03
2019-02-14T13:28:07.357Z,27.57
2019-02-14T13:30:33.140Z,27.17
2019-02-14T13:32:58.908Z,26.73
2019-02-14T13:35:24.698Z,27.13
2019-02-14T13:37:50.454Z,28.27
2019-02-14T13:40:16.266Z,27.20
2019-02-14T13:42:42.063Z,28.87
2019-02-14T13:45:49.503Z,26.70
2019-02-14T13:48:15.277Z,26.93
2019-02-14T13:50:41.046Z,28.40
2019-02-14T13:53:06.824Z,26.20
2019-02-14T13:55:32.617Z,26.37
2019-02-14T13:57:58.372Z,27.17
2019-02-14T14:01:05.813Z,25.80
2019-02-14T14:03:31.570Z,27.57
2019-02-14T14:05:57.353Z,27.27
2019-02-14T14:08:23.110Z,25.73
2019-02-14T14:10:48.878Z,26.77
2019-02-14T14:13:14.728Z,25.30
2019-02-14T14:15:40.501Z,26.43
2019-02-14T14:18:06.250Z,27.13
2019-02-14T14:20:32.003Z,27.17
2019-02-14T14:22:57.789Z,24.10
2019-02-14T14:25:23.561Z,25.60
2019-02-14T14:27:49.318Z,24.50
2019-02-14T14:30:15.083Z,24.77
2019-02-14T14:32:40.851Z,23.73
2019-02-14T14:35:48.330Z,22.67
2019-02-14T14:38:34.004Z,22.60
2019-02-14T14:40:59.779Z,24.43
2019-02-14T14:43:45.538Z,23.40
2019-02-14T14:48:49.470Z,22.40
2019-02-14T14:51:15.463Z,23.50
2019-02-14T14:53:41.293Z,23.23
2019-02-14T14:56:07.034Z,23.70
2019-02-14T14:58:32.799Z,25.97
2019-02-14T15:00:58.550Z,23.83
2019-02-14T15:03:24.321Z,23.67
2019-02-14T15:05:50.067Z,23.27
2019-02-14T15:08:15.835Z,22.97
2019-02-14T15:10:41.603Z,22.13
2019-02-14T15:13:07.361Z,23.53
2019-02-14T15:15:33.130Z,22.63
2019-02-14T15:17:58.895Z,23.07
2019-02-14T15:20:24.650Z,23.03
2019-02-14T15:22:50.419Z,24.53
2019-02-14T15:25:16.185Z,24.27
2019-02-14T15:27:41.973Z,27.30
2019-02-14T15:30:07.839Z,25.33
2019-02-14T15:32:33.586Z,25.77
2019-02-14T15:34:59.362Z,26.17
2019-02-14T15:37:25.133Z,25.63
2019-02-14T15:39:51.345Z,25.10
2019-02-14T15:42:37.633Z,27.07
2019-02-14T15:45:23.534Z,26.23
2019-02-14T15:47:49.317Z,24.43
2019-02-14T15:50:15.757Z,25.70
2019-02-14T15:52:41.832Z,24.97
2019-02-14T15:55:28.977Z,26.10
2019-02-14T15:57:54.747Z,26.63
2019-02-14T16:03:15.307Z,27.63
2019-02-14T16:05:42.677Z,26.53
2019-02-14T16:08:09.331Z,27.10
2019-02-14T16:10:35.103Z,27.03
2019-02-14T16:13:01.102Z,27.10
2019-02-14T16:15:28.812Z,26.60
2019-02-14T16:17:54.674Z,28.27
2019-02-14T16:20:20.442Z,26.77
2019-02-14T16:22:46.290Z,26.80
2019-02-14T16:25:12.073Z,26.23
2019-02-14T16:27:57.730Z,26.97
2019-02-14T16:30:23.510Z,27.13
2019-02-14T16:32:49.273Z,27.90
2019-02-14T16:35:15.053Z,27.67
2019-02-14T16:37:40.807Z,26.90
2019-02-14T16:40:48.273Z,27.90
2019-02-14T16:43:14.026Z,27.57
2019-02-14T16:45:39.797Z,27.27
2019-02-14T16:48:05.568Z,28.23
2019-02-14T16:50:31.346Z,25.80
2019-02-14T16:52:57.119Z,26.47
2019-02-14T16:55:22.889Z,28.03
2019-02-14T16:57:48.656Z,26.07
2019-02-14T17:00:14.450Z,27.40
2019-02-14T17:02:40.211Z,27.37
2019-02-14T17:07:59.907Z,27.70
2019-02-14T17:10:25.673Z,27.17
2019-02-14T17:12:51.468Z,28.17
2019-02-14T17:15:17.234Z,27.60
2019-02-14T17:17:42.986Z,28.73
2019-02-14T17:20:50.428Z,27.30
2019-02-14T17:23:16.200Z,29.30
2019-02-14T17:25:41.985Z,27.53
2019-02-14T17:28:07.746Z,27.57
2019-02-14T17:30:33.534Z,28.33
2019-02-14T17:32:59.281Z,26.30
2019-02-14T17:35:25.084Z,28.27
2019-02-14T17:37:50.840Z,28.00
2019-02-14T17:40:16.605Z,26.77
2019-02-14T17:42:42.368Z,28.30
2019-02-14T17:45:49.836Z,26.03
2019-02-14T17:48:15.588Z,27.90
2019-02-14T17:50:41.353Z,26.97
2019-02-14T17:53:07.112Z,28.30
2019-02-14T17:55:32.890Z,30.47
2019-02-14T17:57:58.643Z,29.43
2019-02-14T18:03:02.467Z,28.63
2019-02-14T18:05:28.260Z,28.50
2019-02-14T18:07:54.010Z,29.53
2019-02-14T18:10:19.766Z,29.83
2019-02-14T18:12:45.543Z,30.13
2019-02-14T18:15:53.002Z,36.07
2019-02-14T18:18:18.762Z,31.20
2019-02-14T18:20:44.527Z,34.30
2019-02-14T18:23:10.302Z,32.83
2019-02-14T18:25:36.064Z,31.73
2019-02-14T18:28:01.833Z,35.80
2019-02-14T18:30:27.592Z,33.63
2019-02-14T18:32:53.366Z,33.20
2019-02-14T18:35:19.136Z,33.27
2019-02-14T18:37:44.909Z,34.27
2019-02-14T18:40:10.761Z,34.87
2019-02-14T18:43:18.201Z,34.50
2019-02-14T18:45:43.959Z,34.57
2019-02-14T18:48:09.742Z,34.80
2019-02-14T18:50:35.502Z,33.33
2019-02-14T18:53:01.270Z,33.97
2019-02-14T18:55:27.032Z,37.67
2019-02-14T18:57:52.802Z,37.20
2019-02-14T19:03:45.632Z,37.23
2019-02-14T19:06:11.393Z,35.20
2019-02-14T19:08:37.193Z,34.50
2019-02-14T19:11:03.063Z,35.30
2019-02-14T19:13:28.832Z,36.00
2019-02-14T19:16:36.287Z,35.63
2019-02-14T19:19:02.056Z,37.67
2019-02-14T19:21:27.828Z,35.17
2019-02-14T19:23:53.590Z,37.57
2019-02-14T19:26:19.344Z,36.07
2019-02-14T19:28:45.107Z,37.53
2019-02-14T19:31:10.867Z,38.43
2019-02-14T19:33:36.639Z,36.73
2019-02-14T19:36:02.403Z,37.90
2019-02-14T19:38:28.174Z,37.83
2019-02-14T19:40:53.931Z,40.30
2019-02-14T19:43:19.691Z,38.57
2019-02-14T19:45:45.460Z,35.63
2019-02-14T19:48:11.228Z,35.53
2019-02-14T19:50:36.998Z,34.63
2019-02-14T19:53:02.754Z,36.77
2019-02-14T19:55:28.530Z,37.87
2019-02-14T19:57:54.277Z,37.20
2019-02-14T20:00:20.063Z,38.67
2019-02-14T20:02:45.832Z,39.77
2019-02-14T20:05:11.631Z,39.90
2019-02-14T20:07:37.377Z,37.10
2019-02-14T20:10:44.828Z,39.33
2019-02-14T20:13:10.585Z,37.23
2019-02-14T20:15:37.610Z,37.10
2019-02-14T20:18:04.129Z,35.43
2019-02-14T20:20:29.905Z,36.20
2019-02-14T20:22:55.685Z,36.83
2019-02-14T20:26:03.130Z,38.77
2019-02-14T20:28:28.882Z,43.20
2019-02-14T20:30:54.676Z,38.67
2019-02-14T20:33:20.431Z,39.37
2019-02-14T20:35:46.229Z,44.67
2019-02-14T20:38:11.990Z,40.17
2019-02-14T20:40:37.759Z,38.03
2019-02-14T20:43:03.526Z,36.30
2019-02-14T20:45:29.291Z,38.37
2019-02-14T20:47:56.912Z,41.03
2019-02-14T20:50:22.732Z,45.70
2019-02-14T20:52:48.487Z,44.53
2019-02-14T20:55:34.135Z,39.80
2019-02-14T20:57:59.910Z,37.60
2019-02-14T21:00:45.571Z,40.00
2019-02-14T21:03:11.347Z,40.90
2019-02-14T21:05:37.121Z,37.07
2019-02-14T21:08:02.894Z,38.90
2019-02-14T21:10:28.673Z,39.87
2019-02-14T21:12:54.429Z,38.33
2019-02-14T21:15:40.138Z,38.53
2019-02-14T21:18:05.896Z,38.00
2019-02-14T21:21:13.350Z,36.70
2019-02-14T21:23:39.106Z,39.90
2019-02-14T21:26:04.923Z,38.27
2019-02-14T21:28:30.674Z,38.50
2019-02-14T21:30:56.431Z,40.77
2019-02-14T21:33:22.209Z,35.47
2019-02-14T21:35:48.014Z,39.67
2019-02-14T21:38:13.777Z,39.97
2019-02-14T21:40:39.527Z,41.57
2019-02-14T21:43:05.321Z,42.47
2019-02-14T21:45:31.191Z,38.73
2019-02-14T21:47:57.141Z,38.77
2019-02-14T21:50:22.964Z,37.65
2019-02-14T21:52:48.710Z,36.27
2019-02-14T21:55:56.161Z,40.27
2019-02-14T21:58:21.942Z,39.10
2019-02-14T22:00:47.717Z,37.20
2019-02-14T22:03:13.517Z,37.10
2019-02-14T22:05:39.284Z,45.10
2019-02-14T22:08:05.167Z,39.00
2019-02-14T22:10:30.967Z,35.30
2019-02-14T22:12:56.736Z,42.23
2019-02-14T22:16:04.197Z,35.87
2019-02-14T22:18:29.971Z,37.03
2019-02-14T22:20:55.724Z,37.03
2019-02-14T22:23:21.503Z,36.83
2019-02-14T22:25:47.378Z,38.70
2019-02-14T22:28:13.158Z,37.00
2019-02-14T22:30:38.907Z,39.90
2019-02-14T22:33:04.678Z,36.70
2019-02-14T22:35:30.458Z,36.83
2019-02-14T22:37:56.241Z,40.10
2019-02-14T22:40:22.019Z,36.53
2019-02-14T22:46:12.196Z,37.95
2019-02-14T22:48:37.969Z,35.73
2019-02-14T22:51:03.745Z,35.80
2019-02-14T22:53:29.525Z,39.07
2019-02-14T22:55:55.288Z,35.63
2019-02-14T22:58:21.050Z,34.83
2019-02-14T23:01:28.478Z,36.20
2019-02-14T23:03:54.325Z,35.60
2019-02-14T23:06:20.086Z,36.67
2019-02-14T23:08:45.855Z,34.37
2019-02-14T23:11:11.628Z,33.80
2019-02-14T23:13:37.398Z,38.47
2019-02-14T23:16:03.171Z,35.40
2019-02-14T23:18:28.988Z,36.67
2019-02-14T23:20:54.702Z,33.30
2019-02-14T23:23:20.491Z,35.73
2019-02-14T23:25:46.241Z,34.83
2019-02-14T23:28:12.019Z,36.73
2019-02-14T23:30:37.789Z,34.27
2019-02-14T23:33:03.528Z,35.67
2019-02-14T23:35:29.336Z,33.67
2019-02-14T23:37:55.084Z,34.10
2019-02-14T23:40:20.871Z,35.37
2019-02-14T23:42:46.632Z,32.13
2019-02-14T23:45:12.404Z,32.80
2019-02-14T23:47:38.163Z,34.60
2019-02-14T23:50:45.641Z,32.13
2019-02-14T23:53:11.394Z,32.73
2019-02-14T23:55:37.159Z,29.77
2019-02-14T23:58:02.923Z,34.80
